createdAt,value
2017-11-07T00:01:00.695Z,100.00
2017-11-07T00:03:28.346Z,100.00
2017-11-07T00:05:57.085Z,100.00
2017-11-07T00:08:24.750Z,100.00
2017-11-07T00:10:52.431Z,100.00
2017-11-07T00:13:20.077Z,100.00
2017-11-07T00:15:47.755Z,100.00
2017-11-07T00:18:15.413Z,100.00
2017-11-07T00:20:43.113Z,100.00
2017-11-07T00:23:10.759Z,100.00
2017-11-07T00:25:38.478Z,100.00
2017-11-07T00:28:06.127Z,100.00
2017-11-07T00:30:33.806Z,100.00
2017-11-07T00:33:01.458Z,100.00
2017-11-07T00:35:29.159Z,100.00
2017-11-07T00:37:56.845Z,100.00
2017-11-07T00:40:24.490Z,100.00
2017-11-07T00:42:52.192Z,100.00
2017-11-07T00:45:19.868Z,100.00
2017-11-07T00:47:47.550Z,100.00
2017-11-07T00:50:15.203Z,100.00
2017-11-07T00:52:43.775Z,100.00
2017-11-07T00:55:11.419Z,100.00
2017-11-07T00:57:39.104Z,100.00
2017-11-07T01:00:06.749Z,100.00
2017-11-07T01:02:34.446Z,100.00
2017-11-07T01:05:02.104Z,100.00
2017-11-07T01:07:29.795Z,100.00
2017-11-07T01:09:57.448Z,100.00
2017-11-07T01:12:25.128Z,100.00
2017-11-07T01:14:52.776Z,100.00
2017-11-07T01:17:20.481Z,100.00
2017-11-07T01:19:48.129Z,100.00
2017-11-07T01:22:15.775Z,100.00
2017-11-07T01:24:43.472Z,100.00
2017-11-07T01:27:11.108Z,100.00
2017-11-07T01:29:42.026Z,100.00
2017-11-07T01:32:09.670Z,100.00
2017-11-07T01:34:37.354Z,100.00
2017-11-07T01:37:05.039Z,100.00
2017-11-07T01:39:32.723Z,100.00
2017-11-07T01:42:00.381Z,100.00
2017-11-07T01:44:28.058Z,100.00
2017-11-07T01:46:55.700Z,100.00
2017-11-07T01:49:23.380Z,100.00
2017-11-07T01:51:51.030Z,100.00
2017-11-07T01:54:18.716Z,100.00
2017-11-07T01:56:46.373Z,100.00
2017-11-07T01:59:14.095Z,100.00
2017-11-07T02:01:41.775Z,100.00
2017-11-07T02:04:09.424Z,100.00
2017-11-07T02:06:37.099Z,100.00
2017-11-07T02:09:04.810Z,100.00
2017-11-07T02:11:32.499Z,100.00
2017-11-07T02:14:00.128Z,100.00
2017-11-07T02:16:27.816Z,100.00
2017-11-07T02:18:55.465Z,100.00
2017-11-07T02:21:23.174Z,100.00
2017-11-07T02:23:50.814Z,100.00
2017-11-07T02:26:18.502Z,100.00
2017-11-07T02:28:46.174Z,100.00
2017-11-07T02:31:13.858Z,100.00
2017-11-07T02:33:41.507Z,100.00
2017-11-07T02:36:09.210Z,100.00
2017-11-07T02:38:36.925Z,100.00
2017-11-07T02:41:04.606Z,100.00
2017-11-07T02:43:32.267Z,100.00
2017-11-07T02:45:59.949Z,100.00
2017-11-07T02:48:27.587Z,100.00
2017-11-07T02:50:55.275Z,100.00
2017-11-07T02:53:22.946Z,100.00
2017-11-07T02:55:50.644Z,100.00
2017-11-07T02:58:18.289Z,100.00
2017-11-07T03:00:45.966Z,100.00
2017-11-07T03:03:13.618Z,100.00
2017-11-07T03:05:41.320Z,100.00
2017-11-07T03:08:08.976Z,100.00
2017-11-07T03:10:36.620Z,100.00
2017-11-07T03:13:04.310Z,100.00
2017-11-07T03:15:31.960Z,100.00
2017-11-07T03:17:59.643Z,100.00
2017-11-07T03:20:27.321Z,100.00
2017-11-07T03:22:55.036Z,100.00
2017-11-07T03:25:22.677Z,100.00
2017-11-07T03:27:50.353Z,100.00
2017-11-07T03:30:17.999Z,100.00
2017-11-07T03:32:45.693Z,100.00
2017-11-07T03:35:13.351Z,100.00
2017-11-07T03:37:41.070Z,100.00
2017-11-07T03:40:08.723Z,100.00
2017-11-07T03:42:36.391Z,100.00
2017-11-07T03:45:04.047Z,100.00
2017-11-07T03:47:31.700Z,100.00
2017-11-07T03:49:59.501Z,100.00
2017-11-07T03:52:27.142Z,100.00
2017-11-07T03:54:54.822Z,100.00
2017-11-07T03:57:22.470Z,100.00
2017-11-07T03:59:50.146Z,100.00
2017-11-07T04:02:17.774Z,100.00
2017-11-07T04:04:45.458Z,100.00
2017-11-07T04:07:13.123Z,100.00
2017-11-07T04:09:40.805Z,100.00
2017-11-07T04:12:08.383Z,100.00
2017-11-07T04:14:36.062Z,100.00
2017-11-07T04:17:03.716Z,100.00
2017-11-07T04:19:31.411Z,100.00
2017-11-07T04:21:59.049Z,100.00
2017-11-07T04:24:26.741Z,100.00
2017-11-07T04:26:54.387Z,100.00
2017-11-07T04:29:22.029Z,100.00
2017-11-07T04:31:49.729Z,100.00
2017-11-07T04:34:17.393Z,100.00
2017-11-07T04:36:45.106Z,100.00
2017-11-07T04:39:12.745Z,100.00
2017-11-07T04:41:40.428Z,100.00
2017-11-07T04:44:08.081Z,100.00
2017-11-07T04:46:35.773Z,100.00
2017-11-07T04:49:03.430Z,100.00
2017-11-07T04:51:31.118Z,100.00
2017-11-07T04:53:58.748Z,100.00
2017-11-07T04:56:26.445Z,100.00
2017-11-07T04:58:54.083Z,100.00
2017-11-07T05:01:21.734Z,100.00
2017-11-07T05:03:49.453Z,100.00
2017-11-07T05:06:17.110Z,100.00
2017-11-07T05:08:44.790Z,100.00
2017-11-07T05:11:12.433Z,100.00
2017-11-07T05:13:40.110Z,100.00
2017-11-07T05:16:07.762Z,100.00
2017-11-07T05:18:35.470Z,100.00
2017-11-07T05:21:03.127Z,100.00
2017-11-07T05:23:30.807Z,100.00
2017-11-07T05:25:58.489Z,100.00
2017-11-07T05:28:26.185Z,100.00
2017-11-07T05:30:53.834Z,100.00
2017-11-07T05:33:21.524Z,100.00
2017-11-07T05:35:49.180Z,100.00
2017-11-07T05:38:16.903Z,100.00
2017-11-07T05:40:44.547Z,100.00
2017-11-07T05:43:12.254Z,100.00
2017-11-07T05:45:39.897Z,100.00
2017-11-07T05:48:07.583Z,100.00
2017-11-07T05:50:35.242Z,100.00
2017-11-07T05:53:02.873Z,100.00
2017-11-07T05:55:30.530Z,100.00
2017-11-07T05:57:58.229Z,100.00
2017-11-07T06:00:25.890Z,100.00
2017-11-07T06:02:53.591Z,100.00
2017-11-07T06:05:21.231Z,100.00
2017-11-07T06:07:49.918Z,100.00
2017-11-07T06:10:17.555Z,100.00
2017-11-07T06:12:45.238Z,100.00
2017-11-07T06:15:12.966Z,100.00
2017-11-07T06:17:40.607Z,100.00
2017-11-07T06:20:08.284Z,100.00
2017-11-07T06:22:35.948Z,100.00
2017-11-07T06:25:03.657Z,100.00
2017-11-07T06:27:31.324Z,100.00
2017-11-07T06:29:59.029Z,100.00
2017-11-07T06:32:26.671Z,100.00
2017-11-07T06:34:54.364Z,100.00
2017-11-07T06:37:22.064Z,100.00
2017-11-07T06:39:49.770Z,100.00
2017-11-07T06:42:17.413Z,100.00
2017-11-07T06:44:45.122Z,100.00
2017-11-07T06:47:12.766Z,100.00
2017-11-07T06:49:40.496Z,100.00
2017-11-07T06:52:08.307Z,100.00
2017-11-07T06:54:35.976Z,100.00
2017-11-07T06:57:03.677Z,100.00
2017-11-07T06:59:31.322Z,100.00
2017-11-07T07:01:59.032Z,100.00
2017-11-07T07:04:26.677Z,100.00
2017-11-07T07:06:54.357Z,100.00
2017-11-07T07:09:22.011Z,100.00
2017-11-07T07:11:49.720Z,100.00
2017-11-07T07:14:17.376Z,100.00
2017-11-07T07:16:45.050Z,100.00
2017-11-07T07:19:12.757Z,100.00
2017-11-07T07:21:40.460Z,100.00
2017-11-07T07:24:08.136Z,100.00
2017-11-07T07:26:35.843Z,100.00
2017-11-07T07:29:03.504Z,100.00
2017-11-07T07:31:31.199Z,100.00
2017-11-07T07:33:58.838Z,100.00
2017-11-07T07:36:26.562Z,100.00
2017-11-07T07:38:54.243Z,100.00
2017-11-07T07:41:21.878Z,100.00
2017-11-07T07:43:49.592Z,100.00
2017-11-07T07:46:17.241Z,100.00
2017-11-07T07:48:44.918Z,100.00
2017-11-07T07:51:12.626Z,100.00
2017-11-07T07:53:40.477Z,100.00
2017-11-07T07:56:08.130Z,100.00
2017-11-07T07:58:35.805Z,100.00
2017-11-07T08:01:03.444Z,100.00
2017-11-07T08:03:31.181Z,100.00
2017-11-07T08:05:58.975Z,100.00
2017-11-07T08:08:27.803Z,100.00
2017-11-07T08:10:55.488Z,100.00
2017-11-07T08:13:23.220Z,100.00
2017-11-07T08:15:50.935Z,100.00
2017-11-07T08:18:18.637Z,100.00
2017-11-07T08:20:46.341Z,100.00
2017-11-07T08:23:14.050Z,99.98
2017-11-07T08:25:41.699Z,99.86
2017-11-07T08:28:09.354Z,99.66
2017-11-07T08:30:37.031Z,99.52
2017-11-07T08:33:04.681Z,99.48
2017-11-07T08:35:32.362Z,99.96
2017-11-07T08:38:00.035Z,100.00
2017-11-07T08:40:27.717Z,99.51
2017-11-07T08:42:55.357Z,99.33
2017-11-07T08:45:23.039Z,99.40
2017-11-07T08:47:50.726Z,99.47
2017-11-07T08:50:18.407Z,99.16
2017-11-07T08:52:46.036Z,99.08
2017-11-07T08:55:13.721Z,99.06
2017-11-07T08:57:41.366Z,99.00
2017-11-07T09:00:09.053Z,99.06
2017-11-07T09:02:36.691Z,99.39
2017-11-07T09:05:04.397Z,99.73
2017-11-07T09:07:32.049Z,99.86
2017-11-07T09:09:59.729Z,100.00
2017-11-07T09:12:27.393Z,99.55
2017-11-07T09:14:55.063Z,99.57
2017-11-07T09:17:22.720Z,99.54
2017-11-07T09:19:50.418Z,99.63
2017-11-07T09:22:18.059Z,99.66
2017-11-07T09:24:45.791Z,99.39
2017-11-07T09:27:13.438Z,99.23
2017-11-07T09:29:41.176Z,99.15
2017-11-07T09:32:08.815Z,99.00
2017-11-07T09:34:36.506Z,99.12
2017-11-07T09:37:04.182Z,99.11
2017-11-07T09:39:31.852Z,98.92
2017-11-07T09:41:59.536Z,99.47
2017-11-07T09:44:27.179Z,99.51
2017-11-07T09:46:54.882Z,99.80
2017-11-07T09:49:22.537Z,99.58
2017-11-07T09:51:50.278Z,99.55
2017-11-07T09:54:18.011Z,99.87
2017-11-07T09:56:45.729Z,99.99
2017-11-07T09:59:13.478Z,100.00
2017-11-07T10:01:41.209Z,100.00
2017-11-07T10:04:08.869Z,100.00
2017-11-07T10:06:36.581Z,100.00
2017-11-07T10:09:05.223Z,100.00
2017-11-07T10:11:32.920Z,100.00
2017-11-07T10:14:00.587Z,100.00
2017-11-07T10:16:28.278Z,99.98
2017-11-07T10:18:55.960Z,99.84
2017-11-07T10:21:23.611Z,99.58
2017-11-07T10:23:51.287Z,99.55
2017-11-07T10:26:18.918Z,99.38
2017-11-07T10:28:46.606Z,99.24
2017-11-07T10:31:14.252Z,99.41
2017-11-07T10:33:41.945Z,99.84
2017-11-07T10:36:09.611Z,99.70
2017-11-07T10:38:37.337Z,99.47
2017-11-07T10:41:04.982Z,99.43
2017-11-07T10:43:32.623Z,99.27
2017-11-07T10:46:00.334Z,99.04
2017-11-07T10:48:28.080Z,98.69
2017-11-07T10:50:55.749Z,98.52
2017-11-07T10:53:23.472Z,98.55
2017-11-07T10:55:51.154Z,98.29
2017-11-07T10:58:18.802Z,98.14
2017-11-07T11:00:46.504Z,97.92
2017-11-07T11:03:14.155Z,97.62
2017-11-07T11:05:41.920Z,97.63
2017-11-07T11:08:09.572Z,97.93
2017-11-07T11:10:37.268Z,98.30
2017-11-07T11:13:04.948Z,98.45
2017-11-07T11:15:32.691Z,98.17
2017-11-07T11:18:00.355Z,98.83
2017-11-07T11:20:28.029Z,98.97
2017-11-07T11:22:55.678Z,98.98
2017-11-07T11:25:23.384Z,98.87
2017-11-07T11:27:51.028Z,98.80
2017-11-07T11:30:18.710Z,99.04
2017-11-07T11:32:46.359Z,99.00
2017-11-07T11:35:14.067Z,98.81
2017-11-07T11:37:41.748Z,98.43
2017-11-07T11:40:09.424Z,98.35
2017-11-07T11:42:37.065Z,98.45
2017-11-07T11:45:04.779Z,98.40
2017-11-07T11:47:32.437Z,98.61
2017-11-07T11:50:01.082Z,98.50
2017-11-07T11:52:28.732Z,98.49
2017-11-07T11:54:56.403Z,98.13
2017-11-07T11:57:24.104Z,98.03
2017-11-07T11:59:51.708Z,98.11
2017-11-07T12:02:19.402Z,98.08
2017-11-07T12:04:47.046Z,98.06
2017-11-07T12:07:14.743Z,98.29
2017-11-07T12:09:43.520Z,98.37
2017-11-07T12:12:11.227Z,98.32
2017-11-07T12:14:38.881Z,98.30
2017-11-07T12:17:06.569Z,98.56
2017-11-07T12:19:34.240Z,98.53
2017-11-07T12:22:01.945Z,98.76
2017-11-07T12:24:29.593Z,98.68
2017-11-07T12:26:57.310Z,98.78
2017-11-07T12:29:24.962Z,98.68
2017-11-07T12:31:52.678Z,98.52
2017-11-07T12:34:20.376Z,98.01
2017-11-07T12:36:48.042Z,98.00
2017-11-07T12:39:15.782Z,97.53
2017-11-07T12:41:43.437Z,97.60
2017-11-07T12:44:11.126Z,97.95
2017-11-07T12:46:38.769Z,97.91
2017-11-07T12:49:06.452Z,97.67
2017-11-07T12:51:45.805Z,97.70
2017-11-07T12:54:13.496Z,97.56
2017-11-07T12:56:41.137Z,97.58
2017-11-07T12:59:08.808Z,97.19
2017-11-07T13:01:36.498Z,96.46
2017-11-07T13:04:04.213Z,96.76
2017-11-07T13:06:31.876Z,96.60
2017-11-07T13:08:59.519Z,96.40
2017-11-07T13:11:27.208Z,96.19
2017-11-07T13:13:54.874Z,96.06
2017-11-07T13:16:22.583Z,96.38
2017-11-07T13:18:50.217Z,96.87
2017-11-07T13:21:17.899Z,96.80
2017-11-07T13:23:45.542Z,96.83
2017-11-07T13:26:13.230Z,97.00
2017-11-07T13:28:40.894Z,96.52
2017-11-07T13:31:08.583Z,96.11
2017-11-07T13:33:36.224Z,96.42
2017-11-07T13:36:03.937Z,96.64
2017-11-07T13:38:31.626Z,97.02
2017-11-07T13:40:59.308Z,97.35
2017-11-07T13:43:26.970Z,97.49
2017-11-07T13:45:54.670Z,97.82
2017-11-07T13:48:22.312Z,97.90
2017-11-07T13:50:49.952Z,98.07
2017-11-07T13:53:17.654Z,97.91
2017-11-07T13:55:45.303Z,97.82
2017-11-07T13:58:12.994Z,97.83
2017-11-07T14:00:40.656Z,97.82
2017-11-07T14:03:08.349Z,97.66
2017-11-07T14:05:35.993Z,97.89
2017-11-07T14:08:03.690Z,98.21
2017-11-07T14:10:31.898Z,98.33
2017-11-07T14:12:59.587Z,98.29
2017-11-07T14:15:27.267Z,98.31
2017-11-07T14:17:55.048Z,98.27
2017-11-07T14:20:22.685Z,98.39
2017-11-07T14:22:50.382Z,98.60
2017-11-07T14:25:18.045Z,98.83
2017-11-07T14:27:45.779Z,99.10
2017-11-07T14:30:13.424Z,99.21
2017-11-07T14:32:41.115Z,99.32
2017-11-07T14:35:08.791Z,99.33
2017-11-07T14:37:37.516Z,99.43
2017-11-07T14:40:05.157Z,99.55
2017-11-07T14:42:32.749Z,99.59
2017-11-07T14:45:00.445Z,99.64
2017-11-07T14:47:28.032Z,99.70
2017-11-07T14:49:55.719Z,99.75
2017-11-07T14:52:23.391Z,99.75
2017-11-07T14:54:51.086Z,99.69
2017-11-07T14:57:18.755Z,99.67
2017-11-07T14:59:46.455Z,99.62
2017-11-07T15:02:14.099Z,99.61
2017-11-07T15:04:41.768Z,99.67
2017-11-07T15:07:09.442Z,99.65
2017-11-07T15:09:37.142Z,99.66
2017-11-07T15:12:04.787Z,99.64
2017-11-07T15:14:32.488Z,99.70
2017-11-07T15:17:00.151Z,99.76
2017-11-07T15:19:27.820Z,100.00
2017-11-07T15:21:55.539Z,100.00
2017-11-07T15:24:23.217Z,100.00
2017-11-07T15:26:50.896Z,100.00
2017-11-07T15:29:18.566Z,100.00
2017-11-07T15:31:46.255Z,100.00
2017-11-07T15:34:13.902Z,100.00
2017-11-07T15:36:41.621Z,100.00
2017-11-07T15:39:09.336Z,100.00
2017-11-07T15:41:37.040Z,100.00
2017-11-07T15:44:04.712Z,100.00
2017-11-07T15:46:32.422Z,100.00
2017-11-07T15:49:00.118Z,100.00
2017-11-07T15:51:27.798Z,100.00
2017-11-07T15:53:55.496Z,100.00
2017-11-07T15:56:23.167Z,100.00
2017-11-07T15:58:51.908Z,100.00
2017-11-07T16:01:19.564Z,100.00
2017-11-07T16:03:47.277Z,100.00
2017-11-07T16:06:14.878Z,100.00
2017-11-07T16:08:42.579Z,100.00
2017-11-07T16:11:10.263Z,100.00
2017-11-07T16:13:37.953Z,100.00
2017-11-07T16:16:05.651Z,100.00
2017-11-07T16:18:33.377Z,100.00
2017-11-07T16:21:01.037Z,100.00
2017-11-07T16:23:28.757Z,100.00
2017-11-07T16:25:56.439Z,100.00
2017-11-07T16:28:24.133Z,100.00
2017-11-07T16:30:51.827Z,100.00
2017-11-07T16:33:19.524Z,100.00
2017-11-07T16:35:47.229Z,100.00
2017-11-07T16:38:14.964Z,100.00
2017-11-07T16:40:42.668Z,100.00
2017-11-07T16:43:10.344Z,100.00
2017-11-07T16:45:38.087Z,100.00
2017-11-07T16:48:05.787Z,100.00
2017-11-07T16:50:33.485Z,100.00
2017-11-07T16:53:01.094Z,100.00
2017-11-07T16:55:28.802Z,100.00
2017-11-07T16:57:56.484Z,100.00
2017-11-07T17:00:24.204Z,100.00
2017-11-07T17:02:51.875Z,100.00
2017-11-07T17:05:19.555Z,100.00
2017-11-07T17:07:47.267Z,100.00
2017-11-07T17:10:14.942Z,100.00
2017-11-07T17:12:42.634Z,100.00
2017-11-07T17:15:10.289Z,100.00
2017-11-07T17:17:38.008Z,100.00
2017-11-07T17:20:05.665Z,100.00
2017-11-07T17:22:33.377Z,100.00
2017-11-07T17:25:01.044Z,100.00
2017-11-07T17:27:28.730Z,100.00
2017-11-07T17:29:56.392Z,100.00
2017-11-07T17:32:24.113Z,100.00
2017-11-07T17:34:51.775Z,100.00
2017-11-07T17:37:19.470Z,100.00
2017-11-07T17:39:47.176Z,100.00
2017-11-07T17:42:14.835Z,100.00
2017-11-07T17:44:42.564Z,100.00
2017-11-07T17:47:10.223Z,100.00
2017-11-07T17:49:37.896Z,100.00
2017-11-07T17:52:05.549Z,100.00
2017-11-07T17:54:33.234Z,100.00
2017-11-07T17:57:00.901Z,100.00
2017-11-07T17:59:28.596Z,100.00
2017-11-07T18:01:56.266Z,100.00
2017-11-07T18:04:23.950Z,100.00
2017-11-07T18:06:51.621Z,100.00
2017-11-07T18:09:19.321Z,100.00
2017-11-07T18:11:46.973Z,100.00
2017-11-07T18:14:14.696Z,100.00
2017-11-07T18:16:42.380Z,100.00
2017-11-07T18:19:10.039Z,100.00
2017-11-07T18:21:37.726Z,100.00
2017-11-07T18:24:05.362Z,100.00
2017-11-07T18:26:33.050Z,100.00
2017-11-07T18:29:00.694Z,100.00
2017-11-07T18:31:28.380Z,100.00
2017-11-07T18:33:56.054Z,100.00
2017-11-07T18:36:23.770Z,100.00
2017-11-07T18:38:51.479Z,100.00
2017-11-07T18:41:19.196Z,100.00
2017-11-07T18:43:46.862Z,100.00
2017-11-07T18:46:14.561Z,100.00
2017-11-07T18:48:42.201Z,100.00
2017-11-07T18:51:09.911Z,100.00
2017-11-07T18:53:37.577Z,100.00
2017-11-07T18:56:05.250Z,100.00
2017-11-07T18:58:32.946Z,100.00
2017-11-07T19:01:00.615Z,100.00
2017-11-07T19:03:28.306Z,100.00
2017-11-07T19:05:55.967Z,100.00
2017-11-07T19:08:23.667Z,100.00
2017-11-07T19:10:51.318Z,100.00
2017-11-07T19:13:18.984Z,100.00
2017-11-07T19:15:46.630Z,100.00
2017-11-07T19:18:14.341Z,100.00
2017-11-07T19:20:42.026Z,100.00
2017-11-07T19:23:09.723Z,100.00
2017-11-07T19:25:37.374Z,100.00
2017-11-07T19:28:05.073Z,100.00
2017-11-07T19:30:32.756Z,100.00
2017-11-07T19:33:00.408Z,100.00
2017-11-07T19:35:28.106Z,100.00
2017-11-07T19:37:55.830Z,100.00
2017-11-07T19:40:23.531Z,100.00
2017-11-07T19:42:51.183Z,100.00
2017-11-07T19:45:18.866Z,100.00
2017-11-07T19:47:46.536Z,100.00
2017-11-07T19:50:15.249Z,100.00
2017-11-07T19:52:42.906Z,100.00
2017-11-07T19:55:10.562Z,100.00
2017-11-07T19:57:38.223Z,100.00
2017-11-07T20:00:05.921Z,100.00
2017-11-07T20:02:33.569Z,100.00
2017-11-07T20:05:01.271Z,100.00
2017-11-07T20:07:28.852Z,100.00
2017-11-07T20:09:56.561Z,100.00
2017-11-07T20:12:24.191Z,100.00
2017-11-07T20:14:51.909Z,100.00
2017-11-07T20:17:19.592Z,100.00
2017-11-07T20:19:47.303Z,100.00
2017-11-07T20:22:14.969Z,100.00
2017-11-07T20:24:42.611Z,100.00
2017-11-07T20:27:10.305Z,100.00
2017-11-07T20:29:37.962Z,100.00
2017-11-07T20:32:05.669Z,100.00
2017-11-07T20:34:33.315Z,100.00
2017-11-07T20:37:01.021Z,100.00
2017-11-07T20:39:28.703Z,100.00
2017-11-07T20:41:56.400Z,100.00
2017-11-07T20:44:24.067Z,100.00
2017-11-07T20:46:51.743Z,100.00
2017-11-07T20:49:19.397Z,100.00
2017-11-07T20:51:47.105Z,100.00
2017-11-07T20:54:14.750Z,100.00
2017-11-07T20:56:42.453Z,100.00
2017-11-07T20:59:10.099Z,100.00
2017-11-07T21:01:37.829Z,100.00
2017-11-07T21:04:05.491Z,100.00
2017-11-07T21:06:33.142Z,100.00
2017-11-07T21:09:00.835Z,100.00
2017-11-07T21:11:28.498Z,100.00
2017-11-07T21:13:56.194Z,100.00
2017-11-07T21:16:23.858Z,100.00
2017-11-07T21:18:52.610Z,100.00
2017-11-07T21:21:20.493Z,100.00
2017-11-07T21:23:48.205Z,100.00
2017-11-07T21:26:15.867Z,100.00
2017-11-07T21:28:43.539Z,100.00
2017-11-07T21:31:11.218Z,100.00
2017-11-07T21:33:38.859Z,100.00
2017-11-07T21:36:06.516Z,100.00
2017-11-07T21:38:34.175Z,100.00
2017-11-07T21:41:01.786Z,100.00
2017-11-07T21:43:29.520Z,100.00
2017-11-07T21:45:57.226Z,100.00
2017-11-07T21:48:24.811Z,100.00
2017-11-07T21:50:52.497Z,100.00
2017-11-07T21:53:20.171Z,100.00
2017-11-07T21:55:47.875Z,100.00
2017-11-07T21:58:15.546Z,100.00
2017-11-07T22:00:44.347Z,100.00
2017-11-07T22:03:12.000Z,100.00
2017-11-07T22:05:39.613Z,100.00
2017-11-07T22:08:07.250Z,100.00
2017-11-07T22:10:35.410Z,100.00
2017-11-07T22:13:03.295Z,100.00
2017-11-07T22:18:15.551Z,100.00
2017-11-07T22:20:43.613Z,100.00
2017-11-07T22:23:17.030Z,100.00
2017-11-07T22:25:44.771Z,100.00
2017-11-07T22:28:12.451Z,100.00
2017-11-07T22:30:40.211Z,100.00
2017-11-07T22:33:07.978Z,100.00
2017-11-07T22:35:35.604Z,100.00
2017-11-07T22:38:03.231Z,100.00
2017-11-07T22:40:30.866Z,100.00
2017-11-07T22:42:58.495Z,100.00
2017-11-07T22:45:28.869Z,100.00
2017-11-07T22:47:56.773Z,100.00
2017-11-07T22:50:24.358Z,100.00
2017-11-07T22:52:52.057Z,100.00
2017-11-07T22:55:19.938Z,100.00
2017-11-07T22:57:47.551Z,100.00
2017-11-07T23:00:15.205Z,100.00
2017-11-07T23:02:42.902Z,100.00
2017-11-07T23:05:10.508Z,100.00
2017-11-07T23:07:38.145Z,100.00
2017-11-07T23:10:05.740Z,100.00
2017-11-07T23:12:33.383Z,100.00
2017-11-07T23:15:01.095Z,100.00
2017-11-07T23:17:28.763Z,100.00
2017-11-07T23:19:56.383Z,100.00
2017-11-07T23:22:24.116Z,100.00
2017-11-07T23:24:51.829Z,100.00
2017-11-07T23:27:19.469Z,100.00
2017-11-07T23:29:47.158Z,100.00
2017-11-07T23:32:14.817Z,100.00
2017-11-07T23:34:42.460Z,100.00
2017-11-07T23:37:10.053Z,100.00
2017-11-07T23:39:37.688Z,100.00
2017-11-07T23:42:05.315Z,100.00
2017-11-07T23:44:32.957Z,100.00
2017-11-07T23:47:00.611Z,100.00
2017-11-07T23:49:28.209Z,100.00
2017-11-07T23:51:55.835Z,100.00
2017-11-07T23:54:23.486Z,100.00
2017-11-07T23:56:51.206Z,100.00
2017-11-07T23:59:19.785Z,100.00
